Time;durP1;ratioP1;P1;durP2;ratioP2;P2;SDS_P1;SDS_P2;PMS_P1;PMS_P2;Temp;Humidity;BMP_temperature;BMP_pressure;BME280_temperature;BME280_humidity;BME280_pressure;Samples;Min_cycle;Max_cycle;Signal;HPM_P1;HPM_P2
2023/05/10 00:01:04;;;;;;;;;;;;;;;20.87;51.72;100739.75;5007519;28;4249;-74
2023/05/10 00:03:30;;;;;;;;;;;;;;;20.88;51.71;100737.59;5009444;28;4133;-73
2023/05/10 00:05:57;;;;;;;;;;;;;;;20.87;51.87;100731.13;5007510;28;4124;-74
2023/05/10 00:08:24;;;;;;;;;;;;;;;20.87;51.77;100731.13;5005677;28;4191;-74
2023/05/10 00:10:50;;;;;;;;;;;;;;;20.87;51.70;100733.25;5004572;28;4827;-74
2023/05/10 00:13:16;;;;;;;;;;;;;;;20.87;51.57;100725.34;5011231;28;4013;-77
2023/05/10 00:15:43;;;;;;;;;;;;;;;20.86;51.79;100723.13;5011530;28;4179;-74
2023/05/10 00:18:09;;;;;;;;;;;;;;;20.86;51.57;100723.88;5004183;28;4213;-74
2023/05/10 00:20:36;;;;;;;;;;;;;;;20.85;51.75;100716.63;5005771;28;4173;-75
2023/05/10 00:23:02;;;;;;;;;;;;;;;20.86;51.80;100720.97;5009391;28;4103;-74
2023/05/10 00:25:28;;;;;;;;;;;;;;;20.85;51.53;100710.16;5006820;28;4117;-75
2023/05/10 00:27:56;;;;;;;;;;;;;;;20.85;51.81;100713.75;5008443;28;4029;-75
2023/05/10 00:30:23;;;;;;;;;;;;;;;20.84;51.56;100709.38;5009429;28;4150;-75
2023/05/10 00:32:49;;;;;;;;;;;;;;;20.85;51.49;100708.00;5003048;28;4143;-75
2023/05/10 00:35:16;;;;;;;;;;;;;;;20.85;51.67;100710.16;5020788;28;4096;-75
2023/05/10 00:37:42;;;;;;;;;;;;;;;20.85;51.65;100698.63;5012707;28;4161;-74
2023/05/10 00:40:09;;;;;;;;;;;;;;;20.84;51.68;100700.75;5014068;28;4065;-74
2023/05/10 00:42:35;;;;;;;;;;;;;;;20.83;51.62;100702.16;5007014;28;4191;-73
2023/05/10 00:45:02;;;;;;;;;;;;;;;20.84;51.53;100697.88;5005918;28;4242;-75
2023/05/10 00:47:29;;;;;;;;;;;;;;;20.83;51.46;100695.66;5007717;28;5144;-75
2023/05/10 00:49:55;;;;;;;;;;;;;;;20.82;51.66;100703.56;5011478;28;3986;-75
2023/05/10 00:52:23;;;;;;;;;;;;;;;20.82;51.63;100688.41;5006287;28;4139;-75
2023/05/10 00:54:50;;;;;;;;;;;;;;;20.82;51.42;100700.69;5001920;28;4144;-75
2023/05/10 00:57:16;;;;;;;;;;;;;;;20.81;51.55;100693.44;5011263;28;4119;-74
2023/05/10 00:59:43;;;;;;;;;;;;;;;20.81;51.42;100690.56;5004868;28;4173;-67
2023/05/10 01:02:10;;;;;;;;;;;;;;;20.80;51.28;100686.22;5011449;28;4363;-71
2023/05/10 01:04:36;;;;;;;;;;;;;;;20.81;51.46;100689.81;5005463;28;4073;-64
2023/05/10 01:07:03;;;;;;;;;;;;;;;20.80;51.49;100686.22;5007599;28;4263;-65
2023/05/10 01:09:29;;;;;;;;;;;;;;;20.80;51.59;100679.69;5005954;28;4137;-64
2023/05/10 01:11:56;;;;;;;;;;;;;;;20.80;51.54;100685.44;5008812;28;4183;-64
2023/05/10 01:14:22;;;;;;;;;;;;;;;20.80;51.38;100685.44;5010038;28;4032;-65
2023/05/10 01:16:49;;;;;;;;;;;;;;;20.79;51.49;100678.97;4986314;28;4500;-65
2023/05/10 01:19:21;;;;;;;;;;;;;;;20.78;51.38;100674.63;5003514;28;5237;-65
2023/05/10 01:21:49;;;;;;;;;;;;;;;20.78;51.51;100683.25;5005664;28;4251;-64
2023/05/10 01:24:24;;;;;;;;;;;;;;;20.78;51.49;100680.38;5008043;28;4115;-64
2023/05/10 01:27:11;;;;;;;;;;;;;;;20.78;51.53;100676.75;5005163;28;4168;-64
2023/05/10 01:29:47;;;;;;;;;;;;;;;20.77;51.38;100678.88;5002404;28;4143;-64
2023/05/10 01:32:35;;;;;;;;;;;;;;;20.77;51.37;100670.25;5001451;28;4166;-64
2023/05/10 01:35:07;;;;;;;;;;;;;;;20.77;51.46;100673.13;5004241;28;4038;-64
2023/05/10 01:37:40;;;;;;;;;;;;;;;20.76;51.38;100680.28;5006012;28;4135;-65
2023/05/10 01:40:33;;;;;;;;;;;;;;;20.76;51.41;100668.78;5006171;28;5008;-64
2023/05/10 01:43:00;;;;;;;;;;;;;;;20.75;51.26;100670.16;4973941;28;4185;-65
2023/05/10 01:45:28;;;;;;;;;;;;;;;20.75;51.23;100666.53;5002775;28;4125;-64
2023/05/10 01:48:08;;;;;;;;;;;;;;;20.75;51.35;100670.16;5006258;28;4045;-64
2023/05/10 01:50:35;;;;;;;;;;;;;;;20.75;51.30;100667.28;5002784;28;4414;-64
2023/05/10 01:53:02;;;;;;;;;;;;;;;20.75;51.08;100673.03;5003566;28;4098;-65
2023/05/10 01:55:30;;;;;;;;;;;;;;;20.74;51.21;100660.06;5005774;28;4189;-65
2023/05/10 01:57:58;;;;;;;;;;;;;;;20.74;51.28;100660.06;5002557;28;4170;-65
2023/05/10 02:00:25;;;;;;;;;;;;;;;20.74;51.24;100660.06;4996683;28;4148;-64
2023/05/10 02:02:51;;;;;;;;;;;;;;;20.74;51.24;100665.81;4997915;28;4143;-65
2023/05/10 02:05:17;;;;;;;;;;;;;;;20.73;51.13;100663.56;5001557;28;4177;-65
2023/05/10 02:07:44;;;;;;;;;;;;;;;20.74;51.02;100659.31;5001988;28;4155;-65
2023/05/10 02:10:10;;;;;;;;;;;;;;;20.73;50.97;100655.72;4996575;28;4093;-65
2023/05/10 02:12:39;;;;;;;;;;;;;;;20.73;50.99;100654.94;4994602;28;4181;-65
2023/05/10 02:15:05;;;;;;;;;;;;;;;20.73;50.94;100658.59;4983887;28;4326;-64
2023/05/10 02:17:32;;;;;;;;;;;;;;;20.73;50.94;100652.06;5006853;28;4933;-65
2023/05/10 02:19:58;;;;;;;;;;;;;;;20.71;51.03;100661.38;5004851;28;4297;-65
2023/05/10 02:22:25;;;;;;;;;;;;;;;20.72;51.05;100654.22;5002795;28;4083;-64
2023/05/10 02:24:51;;;;;;;;;;;;;;;20.73;51.12;100654.94;5006600;28;4033;-65
2023/05/10 02:27:18;;;;;;;;;;;;;;;20.71;50.97;100658.50;5011021;28;4128;-65
2023/05/10 02:29:44;;;;;;;;;;;;;;;20.71;50.80;100644.09;5004135;28;5108;-65
2023/05/10 02:32:10;;;;;;;;;;;;;;;20.71;51.05;100655.63;5002612;28;4221;-65
2023/05/10 02:34:37;;;;;;;;;;;;;;;20.71;50.98;100644.09;5001756;28;4223;-64
2023/05/10 02:37:03;;;;;;;;;;;;;;;20.72;50.77;100639.81;5003302;28;4047;-65
2023/05/10 02:39:31;;;;;;;;;;;;;;;20.71;50.75;100647.00;5003115;28;4030;-65
2023/05/10 02:41:57;;;;;;;;;;;;;;;20.71;50.96;100652.75;4987862;28;3984;-65
2023/05/10 02:44:24;;;;;;;;;;;;;;;20.70;50.88;100654.13;5009728;28;4185;-64
2023/05/10 02:46:51;;;;;;;;;;;;;;;20.70;50.75;100651.25;4992965;28;5439;-64
2023/05/10 02:49:17;;;;;;;;;;;;;;;20.69;50.90;100646.91;5010106;28;4151;-65
2023/05/10 02:51:55;;;;;;;;;;;;;;;20.68;50.65;100645.41;5010893;28;4030;-64
2023/05/10 02:54:24;;;;;;;;;;;;;;;20.68;50.86;100639.66;5006737;28;4065;-65
2023/05/10 02:56:51;;;;;;;;;;;;;;;20.68;50.71;100645.41;5005069;28;4204;-64
2023/05/10 02:59:17;;;;;;;;;;;;;;;20.68;50.70;100642.53;5005832;28;4189;-65
2023/05/10 03:01:43;;;;;;;;;;;;;;;20.68;50.71;100648.28;5010711;28;4126;-65
2023/05/10 03:04:10;;;;;;;;;;;;;;;20.67;50.80;100644.66;5005985;28;4298;-65
2023/05/10 03:06:36;;;;;;;;;;;;;;;20.68;50.70;100648.28;5007025;28;4139;-64
2023/05/10 03:09:03;;;;;;;;;;;;;;;20.66;50.64;100646.06;5001382;28;4161;-64
2023/05/10 03:11:45;;;;;;;;;;;;;;;20.68;50.56;100646.16;5011243;28;4207;-64
2023/05/10 03:14:31;;;;;;;;;;;;;;;20.67;50.61;100643.94;5000544;28;3996;-65
2023/05/10 03:17:00;;;;;;;;;;;;;;;20.66;50.61;100636.69;4991450;28;5370;-65
2023/05/10 03:19:34;;;;;;;;;;;;;;;20.66;50.77;100642.44;4993492;28;4092;-64
2023/05/10 03:22:04;;;;;;;;;;;;;;;20.66;50.61;100633.81;5037443;28;4217;-65
2023/05/10 03:24:33;;;;;;;;;;;;;;;20.66;50.47;100636.69;5010628;28;4179;-64
2023/05/10 03:26:59;;;;;;;;;;;;;;;20.65;50.57;100626.59;4997907;28;4239;-64
2023/05/10 03:29:26;;;;;;;;;;;;;;;20.65;50.36;100635.22;5005192;28;4098;-64
2023/05/10 03:31:53;;;;;;;;;;;;;;;20.65;50.49;100633.06;4992311;28;4057;-64
2023/05/10 03:34:25;;;;;;;;;;;;;;;20.65;50.60;100626.59;4998743;28;4057;-64
2023/05/10 03:36:52;;;;;;;;;;;;;;;20.64;50.56;100636.63;5008259;28;4121;-64
2023/05/10 03:39:19;;;;;;;;;;;;;;;20.64;50.60;100636.63;5005216;28;4038;-65
2023/05/10 03:41:50;;;;;;;;;;;;;;;20.64;50.50;100636.63;4995691;28;4218;-65
2023/05/10 03:44:16;;;;;;;;;;;;;;;20.64;50.44;100628.00;4993442;28;4047;-65
2023/05/10 03:46:43;;;;;;;;;;;;;;;20.62;50.41;100625.75;4986878;28;3948;-65
2023/05/10 03:49:09;;;;;;;;;;;;;;;20.63;50.45;100620.75;5003730;28;4200;-64
2023/05/10 03:51:36;;;;;;;;;;;;;;;20.62;50.42;100631.53;4984728;28;4166;-64
2023/05/10 03:54:03;;;;;;;;;;;;;;;20.61;50.56;100624.25;5023420;28;4270;-65
2023/05/10 03:56:30;;;;;;;;;;;;;;;20.61;50.37;100630.03;5005101;28;4145;-65
2023/05/10 03:58:56;;;;;;;;;;;;;;;20.62;50.58;100627.91;5001633;28;4178;-65
2023/05/10 04:01:23;;;;;;;;;;;;;;;20.61;50.51;100617.78;5007407;28;4097;-65
2023/05/10 04:03:49;;;;;;;;;;;;;;;20.60;50.17;100628.56;5000547;28;4120;-65
2023/05/10 04:06:16;;;;;;;;;;;;;;;20.60;50.36;100627.81;5013413;28;4045;-64
2023/05/10 04:08:42;;;;;;;;;;;;;;;20.60;50.53;100627.81;5008275;28;4125;-64
2023/05/10 04:11:09;;;;;;;;;;;;;;;20.59;50.43;100624.22;5013577;28;4348;-64
2023/05/10 04:13:35;;;;;;;;;;;;;;;20.59;50.50;100626.31;5003390;28;4033;-64
2023/05/10 04:16:02;;;;;;;;;;;;;;;20.59;50.47;100626.31;5004533;28;4271;-64
2023/05/10 04:18:28;;;;;;;;;;;;;;;20.58;50.54;100624.84;5005709;28;4082;-64
2023/05/10 04:20:55;;;;;;;;;;;;;;;20.58;50.31;100624.84;5002756;28;4238;-64
2023/05/10 04:23:21;;;;;;;;;;;;;;;20.57;50.50;100621.25;5005676;28;5288;-64
2023/05/10 04:25:47;;;;;;;;;;;;;;;20.58;50.45;100624.84;5004100;28;4106;-64
2023/05/10 04:28:14;;;;;;;;;;;;;;;20.58;50.53;100619.84;5007240;28;4012;-64
2023/05/10 04:30:40;;;;;;;;;;;;;;;20.57;50.54;100615.50;5007740;28;4294;-64
2023/05/10 04:33:07;;;;;;;;;;;;;;;20.51;50.51;100627.44;5000733;28;4030;-66
2023/05/10 04:35:33;;;;;;;;;;;;;;;20.61;50.53;100617.78;5001072;28;4077;-64
2023/05/10 04:38:00;;;;;;;;;;;;;;;20.58;50.55;100619.84;5004054;28;4247;-66
2023/05/10 04:40:26;;;;;;;;;;;;;;;20.64;50.47;100613.59;5002348;28;4198;-69
2023/05/10 04:42:53;;;;;;;;;;;;;;;20.12;47.55;100615.69;4991813;28;4694;-65
2023/05/10 04:45:19;;;;;;;;;;;;;;;20.25;47.74;100614.84;4997580;28;4041;-68
2023/05/10 04:47:45;;;;;;;;;;;;;;;20.36;47.41;100602.34;5002358;28;4352;-68
2023/05/10 04:50:12;;;;;;;;;;;;;;;20.43;47.87;100606.97;5013570;28;3922;-68
2023/05/10 04:52:38;;;;;;;;;;;;;;;20.48;47.94;100605.75;5003773;28;4597;-66
2023/05/10 04:55:07;;;;;;;;;;;;;;;20.51;48.16;100607.31;5008992;28;4142;-66
2023/05/10 04:57:33;;;;;;;;;;;;;;;20.56;48.55;100593.09;5006475;28;4460;-66
2023/05/10 04:59:59;;;;;;;;;;;;;;;20.54;48.70;100607.38;5007086;28;4057;-67
2023/05/10 05:02:26;;;;;;;;;;;;;;;20.57;48.72;100600.34;5007423;28;3998;-68
2023/05/10 05:04:52;;;;;;;;;;;;;;;20.58;49.23;100596.09;4996054;28;4387;-67
2023/05/10 05:07:19;;;;;;;;;;;;;;;20.58;49.58;100593.22;4987763;28;3931;-66
2023/05/10 05:09:45;;;;;;;;;;;;;;;20.58;49.73;100599.69;5000772;28;4142;-66
2023/05/10 05:12:13;;;;;;;;;;;;;;;20.58;49.89;100602.56;5005930;28;4157;-66
2023/05/10 05:14:41;;;;;;;;;;;;;;;20.59;50.31;100604.06;5005146;28;4059;-66
2023/05/10 05:17:07;;;;;;;;;;;;;;;20.57;50.25;100615.50;5006192;28;4052;-66
2023/05/10 05:19:34;;;;;;;;;;;;;;;20.59;50.18;100603.31;5010742;28;4115;-66
2023/05/10 05:22:00;;;;;;;;;;;;;;;20.59;50.31;100606.94;5008159;28;4194;-66
2023/05/10 05:24:27;;;;;;;;;;;;;;;20.61;50.67;100609.16;5007194;28;4306;-65
2023/05/10 05:26:53;;;;;;;;;;;;;;;20.60;50.79;100602.66;5005226;28;4105;-66
2023/05/10 05:29:19;;;;;;;;;;;;;;;20.60;51.03;100599.06;5008823;28;4478;-66
2023/05/10 05:31:46;;;;;;;;;;;;;;;20.61;51.03;100601.25;5004331;28;4448;-66
2023/05/10 05:34:12;;;;;;;;;;;;;;;20.63;50.90;100609.25;5004826;28;4343;-66
2023/05/10 05:36:38;;;;;;;;;;;;;;;20.61;50.69;100607.00;5007652;28;4043;-65
2023/05/10 05:39:05;;;;;;;;;;;;;;;20.63;50.76;100595.59;5005314;28;3993;-65
2023/05/10 05:41:31;;;;;;;;;;;;;;;20.64;50.73;100602.09;5002756;28;4936;-66
2023/05/10 05:43:57;;;;;;;;;;;;;;;20.63;50.77;100601.34;5005361;28;4153;-66
2023/05/10 05:46:24;;;;;;;;;;;;;;;20.60;50.19;100599.06;5002934;28;4244;-65
2023/05/10 05:48:50;;;;;;;;;;;;;;;20.54;49.21;100598.75;5006421;28;4028;-66
2023/05/10 05:51:17;;;;;;;;;;;;;;;20.51;47.91;100595.81;5004040;28;4010;-66
2023/05/10 05:53:43;;;;;;;;;;;;;;;20.50;47.18;100591.44;5005138;28;4172;-66
2023/05/10 05:56:10;;;;;;;;;;;;;;;20.48;46.78;100591.38;5009642;28;4427;-66
2023/05/10 05:58:36;;;;;;;;;;;;;;;20.49;46.58;100595.72;5004125;28;3984;-65
2023/05/10 06:01:02;;;;;;;;;;;;;;;20.47;45.71;100589.88;5004448;28;4258;-65
2023/05/10 06:03:29;;;;;;;;;;;;;;;20.48;45.59;100602.88;5007941;28;4079;-66
2023/05/10 06:05:55;;;;;;;;;;;;;;;20.47;45.02;100592.75;5004399;28;4159;-65
2023/05/10 06:08:22;;;;;;;;;;;;;;;20.45;44.29;100598.41;5009346;28;5111;-66
2023/05/10 06:10:48;;;;;;;;;;;;;;;20.44;44.06;100602.69;5005017;28;4521;-66
2023/05/10 06:13:15;;;;;;;;;;;;;;;20.44;44.27;100599.81;5003316;28;4105;-66
2023/05/10 06:15:41;;;;;;;;;;;;;;;20.45;43.79;100595.53;5006521;28;4334;-65
2023/05/10 06:18:08;;;;;;;;;;;;;;;20.44;43.64;100594.06;5004057;28;3949;-66
2023/05/10 06:20:34;;;;;;;;;;;;;;;20.44;43.60;100605.56;5003225;28;4487;-65
2023/05/10 06:23:01;;;;;;;;;;;;;;;20.46;43.75;100599.19;5005738;28;4245;-66
2023/05/10 06:25:27;;;;;;;;;;;;;;;20.46;44.20;100597.03;5002923;28;4444;-65
2023/05/10 06:27:57;;;;;;;;;;;;;;;20.46;45.28;100597.03;5009076;28;4192;-63
2023/05/10 06:30:27;;;;;;;;;;;;;;;20.56;45.56;100584.47;5007285;28;4196;-66
2023/05/10 06:32:53;;;;;;;;;;;;;;;20.59;45.60;100600.44;5003336;28;4479;-64
2023/05/10 06:35:20;;;;;;;;;;;;;;;20.55;46.11;100598.13;5004040;28;4361;-64
2023/05/10 06:37:46;;;;;;;;;;;;;;;20.57;46.07;100588.84;5004318;28;4116;-65
2023/05/10 06:40:13;;;;;;;;;;;;;;;20.56;46.49;100593.09;5008386;28;4219;-64
2023/05/10 06:42:39;;;;;;;;;;;;;;;20.55;46.70;100603.88;5001363;28;4313;-64
2023/05/10 06:45:06;;;;;;;;;;;;;;;20.56;46.70;100595.97;5004086;28;4077;-65
2023/05/10 06:47:32;;;;;;;;;;;;;;;20.57;46.82;100597.47;5002450;28;4324;-64
2023/05/10 06:50:00;;;;;;;;;;;;;;;20.57;46.71;100600.34;5002252;28;4288;-65
2023/05/10 06:52:26;;;;;;;;;;;;;;;20.57;46.79;100585.97;5002061;28;4570;-64
2023/05/10 06:54:53;;;;;;;;;;;;;;;20.58;46.95;100590.34;5000526;28;4354;-65
2023/05/10 06:57:20;;;;;;;;;;;;;;;20.59;46.52;100601.19;5002453;28;4135;-64
2023/05/10 06:59:57;;;;;;;;;;;;;;;20.58;46.77;100596.09;4984056;28;4160;-66
2023/05/10 07:02:24;;;;;;;;;;;;;;;20.61;46.73;100603.41;5006096;28;4104;-64
2023/05/10 07:04:51;;;;;;;;;;;;;;;20.60;46.78;100599.78;5009523;28;4289;-62
2023/05/10 07:07:18;;;;;;;;;;;;;;;20.62;46.89;100602.00;5008133;28;4047;-65
2023/05/10 07:09:44;;;;;;;;;;;;;;;20.62;46.91;100594.13;5007025;28;3992;-64
2023/05/10 07:12:11;;;;;;;;;;;;;;;20.62;47.03;100596.25;5006967;28;4168;-63
2023/05/10 07:14:40;;;;;;;;;;;;;;;20.63;46.96;100597.72;5015069;28;4180;-64
2023/05/10 07:17:07;;;;;;;;;;;;;;;20.62;47.07;100579.72;5008372;28;3997;-63
2023/05/10 07:19:33;;;;;;;;;;;;;;;20.63;46.96;100586.97;5009013;28;3952;-64
2023/05/10 07:22:00;;;;;;;;;;;;;;;20.63;46.96;100592.72;5006306;28;4319;-64
2023/05/10 07:24:26;;;;;;;;;;;;;;;20.64;46.96;100588.44;5007473;28;4013;-64
2023/05/10 07:26:52;;;;;;;;;;;;;;;20.62;47.08;100579.00;5007740;28;4177;-63
2023/05/10 07:29:19;;;;;;;;;;;;;;;20.63;47.19;100591.97;5010749;28;4030;-64
2023/05/10 07:31:45;;;;;;;;;;;;;;;20.64;47.07;100594.19;5009866;28;4197;-64
2023/05/10 07:34:12;;;;;;;;;;;;;;;20.63;47.19;100589.81;5014954;28;3930;-64
2023/05/10 07:36:38;;;;;;;;;;;;;;;20.61;47.20;100584.00;5011234;28;4167;-64
2023/05/10 07:39:05;;;;;;;;;;;;;;;20.63;47.20;100586.22;5012625;28;4438;-64
2023/05/10 07:41:32;;;;;;;;;;;;;;;20.65;47.18;100603.56;5006991;28;4172;-64
2023/05/10 07:44:01;;;;;;;;;;;;;;;20.66;47.14;100596.41;5013799;28;4373;-64
2023/05/10 07:46:27;;;;;;;;;;;;;;;20.64;47.20;100588.44;5012713;28;5238;-64
2023/05/10 07:48:53;;;;;;;;;;;;;;;20.65;47.53;100595.66;5010502;28;4089;-64
2023/05/10 07:51:20;;;;;;;;;;;;;;;20.66;47.54;100596.41;5009911;28;4129;-63
2023/05/10 07:53:46;;;;;;;;;;;;;;;20.64;47.58;100594.19;5014437;28;4220;-64
2023/05/10 07:56:22;;;;;;;;;;;;;;;20.68;47.61;100593.63;5008757;28;4096;-64
2023/05/10 07:58:49;;;;;;;;;;;;;;;20.67;47.48;100586.38;5008790;28;3929;-64
2023/05/10 08:01:15;;;;;;;;;;;;;;;20.70;47.63;100590.81;5009539;28;4307;-64
2023/05/10 08:03:42;;;;;;;;;;;;;;;20.66;47.53;100600.03;5008927;28;4292;-64
2023/05/10 08:06:08;;;;;;;;;;;;;;;20.70;47.62;100596.56;5012377;28;4084;-64
2023/05/10 08:08:35;;;;;;;;;;;;;;;20.66;47.63;100588.53;5009567;28;4016;-64
2023/05/10 08:11:01;;;;;;;;;;;;;;;20.66;47.78;100596.41;5010978;28;4063;-64
2023/05/10 08:13:27;;;;;;;;;;;;;;;20.67;47.77;100592.16;5004569;28;4026;-64
2023/05/10 08:15:54;;;;;;;;;;;;;;;20.67;47.88;100592.88;5008204;28;4169;-64
2023/05/10 08:18:20;;;;;;;;;;;;;;;20.68;47.86;100605.13;5009964;28;4252;-64
2023/05/10 08:20:47;;;;;;;;;;;;;;;20.70;47.89;100605.22;5007670;28;4021;-63
2023/05/10 08:23:14;;;;;;;;;;;;;;;20.70;47.90;100605.22;5011461;28;4296;-64
2023/05/10 08:25:40;;;;;;;;;;;;;;;20.70;47.93;100596.56;5007100;28;4210;-64
2023/05/10 08:28:06;;;;;;;;;;;;;;;20.70;47.95;100602.34;5010348;28;4234;-64
2023/05/10 08:30:35;;;;;;;;;;;;;;;20.72;47.73;100605.28;5008341;28;4281;-63
2023/05/10 08:33:01;;;;;;;;;;;;;;;20.70;47.69;100608.09;5007778;28;4170;-64
2023/05/10 08:35:28;;;;;;;;;;;;;;;20.72;47.94;100605.28;5011853;28;4053;-64
2023/05/10 08:37:54;;;;;;;;;;;;;;;20.71;47.91;100610.31;5010835;28;4062;-64
2023/05/10 08:40:20;;;;;;;;;;;;;;;20.70;48.08;100608.09;5010512;28;4098;-63
2023/05/10 08:42:58;;;;;;;;;;;;;;;20.71;47.99;100613.19;5005159;28;4013;-63
2023/05/10 08:45:24;;;;;;;;;;;;;;;20.72;47.90;100605.28;5006888;28;4970;-64
2023/05/10 08:47:51;;;;;;;;;;;;;;;20.75;48.00;100612.59;5004051;28;4912;-64
2023/05/10 08:50:18;;;;;;;;;;;;;;;20.74;47.98;100611.13;5009393;28;4095;-63
2023/05/10 08:52:44;;;;;;;;;;;;;;;20.73;48.07;100611.78;5010386;28;4092;-64
2023/05/10 08:55:11;;;;;;;;;;;;;;;20.75;48.15;100609.00;5005579;28;4184;-64
2023/05/10 08:57:37;;;;;;;;;;;;;;;20.74;48.19;100605.38;5014338;28;4142;-65
2023/05/10 09:00:04;;;;;;;;;;;;;;;20.75;48.21;100615.47;5012883;28;4142;-64
2023/05/10 09:02:30;;;;;;;;;;;;;;;20.76;48.18;100610.50;5007053;28;4488;-63
2023/05/10 09:04:57;;;;;;;;;;;;;;;20.74;48.33;100607.53;5011581;28;4049;-63
2023/05/10 09:07:23;;;;;;;;;;;;;;;20.73;48.40;100606.78;5010419;28;4383;-64
2023/05/10 09:09:50;;;;;;;;;;;;;;;20.76;48.29;100605.47;5009679;28;4069;-63
2023/05/10 09:12:16;;;;;;;;;;;;;;;20.75;48.44;100603.97;5009277;28;4334;-64
2023/05/10 09:14:43;;;;;;;;;;;;;;;20.74;48.23;100604.66;5008171;28;4305;-64
2023/05/10 09:17:09;;;;;;;;;;;;;;;20.75;48.43;100615.47;5008264;28;4120;-64
2023/05/10 09:19:35;;;;;;;;;;;;;;;20.76;48.36;100610.50;5009803;28;4167;-64
2023/05/10 09:22:02;;;;;;;;;;;;;;;20.75;48.40;100618.34;5006382;28;4289;-63
2023/05/10 09:24:29;;;;;;;;;;;;;;;20.77;48.39;100621.31;5006777;28;4191;-64
2023/05/10 09:26:56;;;;;;;;;;;;;;;20.76;48.34;100616.97;5013118;28;3951;-63
2023/05/10 09:29:22;;;;;;;;;;;;;;;20.77;48.36;100618.44;5016291;28;4104;-64
2023/05/10 09:31:52;;;;;;;;;;;;;;;20.77;48.46;100623.47;5009833;28;4120;-64
2023/05/10 09:34:18;;;;;;;;;;;;;;;20.78;48.36;100611.31;5012617;28;4136;-65
2023/05/10 09:36:56;;;;;;;;;;;;;;;20.79;48.47;100618.53;5014578;28;4106;-65
2023/05/10 09:39:31;;;;;;;;;;;;;;;20.76;48.64;100616.97;5007309;28;4089;-64
2023/05/10 09:42:03;;;;;;;;;;;;;;;20.79;48.35;100621.41;5008735;28;4330;-65
2023/05/10 09:44:30;;;;;;;;;;;;;;;20.79;48.62;100621.41;5014370;28;4116;-64
2023/05/10 09:46:56;;;;;;;;;;;;;;;20.78;48.66;100630.72;4996690;28;4070;-64
2023/05/10 09:49:23;;;;;;;;;;;;;;;20.79;48.63;100624.28;5010068;28;4150;-64
2023/05/10 09:52:02;;;;;;;;;;;;;;;20.80;48.67;100622.13;5004050;28;4229;-64
2023/05/10 09:54:28;;;;;;;;;;;;;;;20.79;48.70;100621.41;5008336;28;4317;-63
2023/05/10 09:56:55;;;;;;;;;;;;;;;20.81;48.46;100618.63;5007825;28;4171;-63
2023/05/10 09:59:21;;;;;;;;;;;;;;;20.82;48.56;100620.09;5004917;28;4045;-64
2023/05/10 10:01:51;;;;;;;;;;;;;;;20.79;48.74;100621.41;5008664;28;4366;-63
2023/05/10 10:04:17;;;;;;;;;;;;;;;20.79;48.61;100624.28;5014380;28;4040;-63
2023/05/10 10:06:44;;;;;;;;;;;;;;;20.82;48.61;100625.88;5010370;28;4386;-64
2023/05/10 10:09:10;;;;;;;;;;;;;;;20.83;48.88;100624.47;5007711;28;4414;-64
2023/05/10 10:11:37;;;;;;;;;;;;;;;20.82;49.02;100620.09;5014613;28;5338;-64
2023/05/10 10:14:04;;;;;;;;;;;;;;;20.83;48.99;100615.81;5009985;28;4172;-63
2023/05/10 10:16:30;;;;;;;;;;;;;;;20.86;49.05;100620.25;5006180;28;4114;-65
2023/05/10 10:18:57;;;;;;;;;;;;;;;20.83;49.13;100618.69;5008821;28;4203;-63
2023/05/10 10:21:23;;;;;;;;;;;;;;;20.87;49.31;100613.13;5008210;28;4172;-63
2023/05/10 10:23:50;;;;;;;;;;;;;;;20.88;49.51;100611.69;5010774;28;4245;-66
2023/05/10 10:26:19;;;;;;;;;;;;;;;20.89;49.52;100618.19;5009780;28;4165;-63
2023/05/10 10:28:56;;;;;;;;;;;;;;;20.89;49.63;100630.47;5006322;28;4141;-63
2023/05/10 10:31:34;;;;;;;;;;;;;;;20.91;49.65;100619.03;5005533;28;4074;-64
2023/05/10 10:34:04;;;;;;;;;;;;;;;20.89;49.88;100618.97;5007971;28;4106;-64
2023/05/10 10:36:33;;;;;;;;;;;;;;;20.88;49.80;100605.94;4997319;28;5255;-64
2023/05/10 10:39:00;;;;;;;;;;;;;;;20.89;50.08;100607.44;5012603;28;4014;-64
2023/05/10 10:41:27;;;;;;;;;;;;;;;20.89;49.82;100607.44;5005585;28;3997;-64
2023/05/10 10:44:12;;;;;;;;;;;;;;;20.90;50.09;100608.91;5006147;28;4099;-64
2023/05/10 10:46:57;;;;;;;;;;;;;;;20.91;50.02;100610.41;5006602;28;4046;-64
2023/05/10 10:49:23;;;;;;;;;;;;;;;20.90;50.21;100614.66;5003657;28;4193;-66
2023/05/10 10:52:09;;;;;;;;;;;;;;;20.89;50.12;100613.19;5013013;28;4408;-67
2023/05/10 10:54:35;;;;;;;;;;;;;;;20.95;50.20;100609.06;5026166;28;3945;-66
2023/05/10 10:57:11;;;;;;;;;;;;;;;20.91;49.97;100610.41;5009812;28;4335;-66
2023/05/10 10:59:42;;;;;;;;;;;;;;;20.93;50.12;100606.84;5006640;28;3933;-66
2023/05/10 11:02:08;;;;;;;;;;;;;;;20.93;50.05;100613.34;5011845;28;4214;-66
2023/05/10 11:04:46;;;;;;;;;;;;;;;20.93;50.04;100601.81;5015481;28;4115;-66
2023/05/10 11:07:16;;;;;;;;;;;;;;;20.93;50.31;100606.84;5011929;28;4220;-66
2023/05/10 11:09:42;;;;;;;;;;;;;;;20.93;50.31;100601.81;5012918;28;3986;-67
2023/05/10 11:12:09;;;;;;;;;;;;;;;20.95;50.15;100609.81;5006248;28;4025;-67
2023/05/10 11:14:35;;;;;;;;;;;;;;;20.93;50.28;100601.09;5008707;28;4123;-66
2023/05/10 11:17:02;;;;;;;;;;;;;;;20.95;50.09;100597.56;5014778;28;4038;-66
2023/05/10 11:19:28;;;;;;;;;;;;;;;20.95;50.45;100591.81;5013203;28;4092;-66
2023/05/10 11:22:04;;;;;;;;;;;;;;;20.93;50.53;100596.06;5010884;28;4018;-67
2023/05/10 11:24:30;;;;;;;;;;;;;;;20.97;50.41;100600.53;5012255;28;4076;-66
2023/05/10 11:26:57;;;;;;;;;;;;;;;20.96;50.54;100599.03;5013571;28;3925;-66
2023/05/10 11:29:26;;;;;;;;;;;;;;;20.95;50.55;100597.56;5007095;28;4521;-66
2023/05/10 11:31:52;;;;;;;;;;;;;;;20.97;50.57;100606.28;5009418;28;4031;-66
2023/05/10 11:34:25;;;;;;;;;;;;;;;20.98;50.59;100587.59;5009523;28;4214;-66
2023/05/10 11:36:53;;;;;;;;;;;;;;;20.98;50.25;100599.13;4998855;28;3935;-66
2023/05/10 11:39:20;;;;;;;;;;;;;;;20.98;50.64;100597.00;5013187;28;4320;-66
2023/05/10 11:41:49;;;;;;;;;;;;;;;21.00;50.38;100587.69;5014027;28;4119;-66
2023/05/10 11:44:16;;;;;;;;;;;;;;;21.00;50.61;100599.19;5009029;28;4167;-66
2023/05/10 11:46:42;;;;;;;;;;;;;;;20.99;50.55;100592.72;5012565;28;4119;-66
2023/05/10 11:49:09;;;;;;;;;;;;;;;21.01;50.49;100595.66;5014241;28;4161;-66
2023/05/10 11:51:36;;;;;;;;;;;;;;;21.02;50.63;100605.03;5007222;28;4092;-66
2023/05/10 11:54:05;;;;;;;;;;;;;;;21.01;50.72;100597.81;5009506;28;3931;-66
2023/05/10 11:56:32;;;;;;;;;;;;;;;21.00;50.53;100593.44;5010240;28;4012;-66
2023/05/10 11:58:59;;;;;;;;;;;;;;;21.02;50.62;100590.66;5015047;28;4258;-66
2023/05/10 12:01:26;;;;;;;;;;;;;;;21.03;50.65;100598.63;5006249;28;4474;-65
2023/05/10 12:03:53;;;;;;;;;;;;;;;21.03;50.74;100592.13;5012562;28;4051;-66
2023/05/10 12:06:20;;;;;;;;;;;;;;;21.03;50.65;100598.63;5013347;28;4100;-66
2023/05/10 12:08:46;;;;;;;;;;;;;;;21.04;50.80;100597.22;5013845;28;4144;-65
2023/05/10 12:11:16;;;;;;;;;;;;;;;21.06;50.69;100605.94;5007726;28;4078;-66
2023/05/10 12:13:46;;;;;;;;;;;;;;;21.03;50.62;100601.50;5011101;28;4970;-66
2023/05/10 12:16:13;;;;;;;;;;;;;;;21.04;50.76;100605.13;5001728;28;4160;-66
2023/05/10 12:18:39;;;;;;;;;;;;;;;21.06;50.76;100602.31;5009799;28;4453;-65
2023/05/10 12:21:06;;;;;;;;;;;;;;;21.07;50.73;100600.91;5010481;28;4140;-66
2023/05/10 12:23:32;;;;;;;;;;;;;;;21.08;50.72;100602.41;5004265;28;4189;-65
2023/05/10 12:26:03;;;;;;;;;;;;;;;21.09;50.79;100607.50;5010070;28;4233;-66
2023/05/10 12:28:32;;;;;;;;;;;;;;;21.09;50.59;100601.72;5012187;28;4280;-65
2023/05/10 12:30:58;;;;;;;;;;;;;;;21.09;50.59;100606.75;5013420;28;3997;-66
2023/05/10 12:33:25;;;;;;;;;;;;;;;21.09;50.68;100612.50;5010293;28;4540;-66
2023/05/10 12:35:52;;;;;;;;;;;;;;;21.09;50.74;100612.50;5011255;28;3852;-66
2023/05/10 12:38:25;;;;;;;;;;;;;;;21.11;50.78;100612.59;5013442;28;4175;-66
2023/05/10 12:40:51;;;;;;;;;;;;;;;21.10;50.76;100608.25;5012179;28;4296;-66
2023/05/10 12:43:18;;;;;;;;;;;;;;;21.14;50.57;100608.38;5010273;28;4766;-66
2023/05/10 12:45:47;;;;;;;;;;;;;;;21.13;50.63;100599.00;5009001;28;4558;-66
2023/05/10 12:48:14;;;;;;;;;;;;;;;21.12;50.86;100611.94;5007163;28;4137;-66
2023/05/10 12:50:41;;;;;;;;;;;;;;;21.13;50.84;100610.53;5010005;28;5118;-66